sensor_id;sensor_type;location;lat;lon;timestamp;temperature;humidity
26136;DHT22;13889;50.806;4.608;2022-09-17T00:00:46;13.30;99.90
26136;DHT22;13889;50.806;4.608;2022-09-17T00:03:12;13.30;99.90
26136;DHT22;13889;50.806;4.608;2022-09-17T00:05:38;13.30;99.90
26136;DHT22;13889;50.806;4.608;2022-09-17T00:08:05;13.30;99.90
26136;DHT22;13889;50.806;4.608;2022-09-17T00:10:32;13.40;99.90
26136;DHT22;13889;50.806;4.608;2022-09-17T00:13:02;13.40;99.90
26136;DHT22;13889;50.806;4.608;2022-09-17T00:15:27;13.30;99.90
26136;DHT22;13889;50.806;4.608;2022-09-17T00:17:54;13.30;99.90
26136;DHT22;13889;50.806;4.608;2022-09-17T00:20:25;13.30;99.90
26136;DHT22;13889;50.806;4.608;2022-09-17T00:22:52;13.20;99.90
26136;DHT22;13889;50.806;4.608;2022-09-17T00:25:18;13.20;99.90
26136;DHT22;13889;50.806;4.608;2022-09-17T00:27:44;13.10;99.90
26136;DHT22;13889;50.806;4.608;2022-09-17T00:30:11;13.10;99.90
26136;DHT22;13889;50.806;4.608;2022-09-17T00:32:37;13.00;99.90
26136;DHT22;13889;50.806;4.608;2022-09-17T00:35:03;13.00;99.90
26136;DHT22;13889;50.806;4.608;2022-09-17T00:37:28;13.10;99.90
26136;DHT22;13889;50.806;4.608;2022-09-17T00:39:54;13.10;99.90
26136;DHT22;13889;50.806;4.608;2022-09-17T00:42:21;13.10;99.90
26136;DHT22;13889;50.806;4.608;2022-09-17T00:44:52;13.10;99.90
26136;DHT22;13889;50.806;4.608;2022-09-17T00:47:32;13.20;99.90
26136;DHT22;13889;50.806;4.608;2022-09-17T00:52:50;13.20;99.90
26136;DHT22;13889;50.806;4.608;2022-09-17T00:55:27;13.10;99.90
26136;DHT22;13889;50.806;4.608;2022-09-17T00:57:57;13.10;99.90
26136;DHT22;13889;50.806;4.608;2022-09-17T01:00:24;13.10;99.90
26136;DHT22;13889;50.806;4.608;2022-09-17T01:02:50;13.10;99.90
26136;DHT22;13889;50.806;4.608;2022-09-17T01:11:13;13.10;99.90
26136;DHT22;13889;50.806;4.608;2022-09-17T01:18:59;13.20;99.90
26136;DHT22;13889;50.806;4.608;2022-09-17T01:32:28;13.20;99.90
26136;DHT22;13889;50.806;4.608;2022-09-17T01:40:18;13.10;99.90
26136;DHT22;13889;50.806;4.608;2022-09-17T01:42:59;13.10;99.90
26136;DHT22;13889;50.806;4.608;2022-09-17T01:45:48;13.10;99.90
26136;DHT22;13889;50.806;4.608;2022-09-17T01:51:01;13.10;99.90
26136;DHT22;13889;50.806;4.608;2022-09-17T01:56:28;13.10;99.90
26136;DHT22;13889;50.806;4.608;2022-09-17T01:59:01;13.10;99.90
26136;DHT22;13889;50.806;4.608;2022-09-17T02:01:30;13.10;99.90
26136;DHT22;13889;50.806;4.608;2022-09-17T02:04:02;13.20;99.90
26136;DHT22;13889;50.806;4.608;2022-09-17T02:06:32;13.10;99.90
26136;DHT22;13889;50.806;4.608;2022-09-17T02:09:05;13.10;99.90
26136;DHT22;13889;50.806;4.608;2022-09-17T02:11:34;13.00;99.90
26136;DHT22;13889;50.806;4.608;2022-09-17T02:14:12;13.10;99.90
26136;DHT22;13889;50.806;4.608;2022-09-17T02:16:46;13.10;99.90
26136;DHT22;13889;50.806;4.608;2022-09-17T02:19:24;13.00;99.90
26136;DHT22;13889;50.806;4.608;2022-09-17T02:22:20;13.10;99.90
26136;DHT22;13889;50.806;4.608;2022-09-17T02:25:01;13.10;99.90
26136;DHT22;13889;50.806;4.608;2022-09-17T02:27:55;13.10;99.90
26136;DHT22;13889;50.806;4.608;2022-09-17T02:30:22;13.10;99.90
26136;DHT22;13889;50.806;4.608;2022-09-17T02:32:48;13.10;99.90
26136;DHT22;13889;50.806;4.608;2022-09-17T02:35:14;13.10;99.90
26136;DHT22;13889;50.806;4.608;2022-09-17T02:37:41;13.10;99.90
26136;DHT22;13889;50.806;4.608;2022-09-17T02:40:07;13.20;99.90
26136;DHT22;13889;50.806;4.608;2022-09-17T02:42:55;13.30;99.90
26136;DHT22;13889;50.806;4.608;2022-09-17T02:45:51;13.30;99.90
26136;DHT22;13889;50.806;4.608;2022-09-17T02:51:19;13.30;99.90
26136;DHT22;13889;50.806;4.608;2022-09-17T02:59:49;13.40;99.90
26136;DHT22;13889;50.806;4.608;2022-09-17T03:02:27;13.40;99.90
26136;DHT22;13889;50.806;4.608;2022-09-17T03:04:55;13.40;99.90
26136;DHT22;13889;50.806;4.608;2022-09-17T03:07:22;13.40;99.90
26136;DHT22;13889;50.806;4.608;2022-09-17T03:09:48;13.30;99.90
26136;DHT22;13889;50.806;4.608;2022-09-17T03:12:14;13.30;99.90
26136;DHT22;13889;50.806;4.608;2022-09-17T03:14:40;13.30;99.90
26136;DHT22;13889;50.806;4.608;2022-09-17T03:17:05;13.40;99.90
26136;DHT22;13889;50.806;4.608;2022-09-17T03:19:31;13.50;99.90
26136;DHT22;13889;50.806;4.608;2022-09-17T03:21:57;13.40;99.90
26136;DHT22;13889;50.806;4.608;2022-09-17T03:24:22;13.40;99.90
26136;DHT22;13889;50.806;4.608;2022-09-17T03:26:48;13.30;99.90
26136;DHT22;13889;50.806;4.608;2022-09-17T03:29:15;13.30;99.90
26136;DHT22;13889;50.806;4.608;2022-09-17T03:31:41;13.20;99.90
26136;DHT22;13889;50.806;4.608;2022-09-17T03:34:06;13.10;99.90
26136;DHT22;13889;50.806;4.608;2022-09-17T03:36:32;13.10;99.90
26136;DHT22;13889;50.806;4.608;2022-09-17T03:38:58;13.10;99.90
26136;DHT22;13889;50.806;4.608;2022-09-17T03:41:25;13.10;99.90
26136;DHT22;13889;50.806;4.608;2022-09-17T03:43:51;13.10;99.90
26136;DHT22;13889;50.806;4.608;2022-09-17T03:46:17;13.20;99.90
26136;DHT22;13889;50.806;4.608;2022-09-17T03:48:43;13.20;99.90
26136;DHT22;13889;50.806;4.608;2022-09-17T03:51:08;13.20;99.90
26136;DHT22;13889;50.806;4.608;2022-09-17T03:53:34;13.20;99.90
26136;DHT22;13889;50.806;4.608;2022-09-17T03:56:01;13.30;99.90
26136;DHT22;13889;50.806;4.608;2022-09-17T03:58:28;13.20;99.90
26136;DHT22;13889;50.806;4.608;2022-09-17T04:00:54;13.30;99.90
26136;DHT22;13889;50.806;4.608;2022-09-17T04:03:22;13.20;99.90
26136;DHT22;13889;50.806;4.608;2022-09-17T04:05:48;13.10;99.90
26136;DHT22;13889;50.806;4.608;2022-09-17T04:08:14;13.10;99.90
26136;DHT22;13889;50.806;4.608;2022-09-17T04:10:40;13.10;99.90
26136;DHT22;13889;50.806;4.608;2022-09-17T04:13:06;13.10;99.90
26136;DHT22;13889;50.806;4.608;2022-09-17T04:15:31;13.00;99.90
26136;DHT22;13889;50.806;4.608;2022-09-17T04:17:57;12.90;99.90
26136;DHT22;13889;50.806;4.608;2022-09-17T04:20:24;12.90;99.90
26136;DHT22;13889;50.806;4.608;2022-09-17T04:22:50;12.90;99.90
26136;DHT22;13889;50.806;4.608;2022-09-17T04:25:16;12.80;99.90
26136;DHT22;13889;50.806;4.608;2022-09-17T04:27:42;12.70;99.90
26136;DHT22;13889;50.806;4.608;2022-09-17T04:30:08;12.70;99.90
26136;DHT22;13889;50.806;4.608;2022-09-17T04:32:34;12.70;99.90
26136;DHT22;13889;50.806;4.608;2022-09-17T04:35:00;12.60;99.90
26136;DHT22;13889;50.806;4.608;2022-09-17T04:37:26;12.50;99.90
26136;DHT22;13889;50.806;4.608;2022-09-17T04:39:51;12.50;99.90
26136;DHT22;13889;50.806;4.608;2022-09-17T04:42:17;12.50;99.90
26136;DHT22;13889;50.806;4.608;2022-09-17T04:44:43;12.60;99.90
26136;DHT22;13889;50.806;4.608;2022-09-17T04:47:09;12.60;99.90
26136;DHT22;13889;50.806;4.608;2022-09-17T04:49:34;12.70;99.90
26136;DHT22;13889;50.806;4.608;2022-09-17T04:52:00;12.60;99.90
26136;DHT22;13889;50.806;4.608;2022-09-17T04:54:26;12.70;99.90
26136;DHT22;13889;50.806;4.608;2022-09-17T04:56:51;12.70;99.90
26136;DHT22;13889;50.806;4.608;2022-09-17T04:59:17;12.70;99.90
26136;DHT22;13889;50.806;4.608;2022-09-17T05:01:43;12.80;99.90
26136;DHT22;13889;50.806;4.608;2022-09-17T05:04:09;12.90;99.90
26136;DHT22;13889;50.806;4.608;2022-09-17T05:06:35;12.80;99.90
26136;DHT22;13889;50.806;4.608;2022-09-17T05:09:00;12.60;99.90
26136;DHT22;13889;50.806;4.608;2022-09-17T05:11:27;12.60;99.90
26136;DHT22;13889;50.806;4.608;2022-09-17T05:13:54;12.60;99.90
26136;DHT22;13889;50.806;4.608;2022-09-17T05:16:19;12.50;99.90
26136;DHT22;13889;50.806;4.608;2022-09-17T05:18:45;12.40;99.90
26136;DHT22;13889;50.806;4.608;2022-09-17T05:23:51;12.40;99.90
26136;DHT22;13889;50.806;4.608;2022-09-17T05:26:16;12.40;99.90
26136;DHT22;13889;50.806;4.608;2022-09-17T05:28:42;12.50;99.90
26136;DHT22;13889;50.806;4.608;2022-09-17T05:31:07;12.50;99.90
26136;DHT22;13889;50.806;4.608;2022-09-17T05:33:33;12.50;99.90
26136;DHT22;13889;50.806;4.608;2022-09-17T05:35:59;12.40;99.90
26136;DHT22;13889;50.806;4.608;2022-09-17T05:38:24;12.50;99.90
26136;DHT22;13889;50.806;4.608;2022-09-17T05:40:50;12.60;99.90
26136;DHT22;13889;50.806;4.608;2022-09-17T05:43:16;12.60;99.90
26136;DHT22;13889;50.806;4.608;2022-09-17T05:45:42;12.60;99.90
26136;DHT22;13889;50.806;4.608;2022-09-17T05:48:11;12.60;99.90
26136;DHT22;13889;50.806;4.608;2022-09-17T05:50:37;12.60;99.90
26136;DHT22;13889;50.806;4.608;2022-09-17T05:53:05;12.60;99.90
26136;DHT22;13889;50.806;4.608;2022-09-17T05:55:32;12.50;99.90
26136;DHT22;13889;50.806;4.608;2022-09-17T05:57:59;12.60;99.90
26136;DHT22;13889;50.806;4.608;2022-09-17T06:00:25;12.60;99.90
26136;DHT22;13889;50.806;4.608;2022-09-17T06:02:57;12.70;99.90
26136;DHT22;13889;50.806;4.608;2022-09-17T06:05:23;12.80;99.90
26136;DHT22;13889;50.806;4.608;2022-09-17T06:07:49;12.80;99.90
26136;DHT22;13889;50.806;4.608;2022-09-17T06:10:15;12.70;99.90
26136;DHT22;13889;50.806;4.608;2022-09-17T06:13:16;12.60;99.90
26136;DHT22;13889;50.806;4.608;2022-09-17T06:15:42;12.60;99.90
26136;DHT22;13889;50.806;4.608;2022-09-17T06:18:07;12.60;99.90
26136;DHT22;13889;50.806;4.608;2022-09-17T06:20:33;12.70;99.90
26136;DHT22;13889;50.806;4.608;2022-09-17T06:22:58;12.70;99.90
26136;DHT22;13889;50.806;4.608;2022-09-17T06:25:24;12.80;99.90
26136;DHT22;13889;50.806;4.608;2022-09-17T06:27:51;12.90;99.90
26136;DHT22;13889;50.806;4.608;2022-09-17T06:30:16;13.00;99.90
26136;DHT22;13889;50.806;4.608;2022-09-17T06:32:42;13.10;99.90
26136;DHT22;13889;50.806;4.608;2022-09-17T06:35:08;13.20;99.90
26136;DHT22;13889;50.806;4.608;2022-09-17T06:37:34;13.30;99.90
26136;DHT22;13889;50.806;4.608;2022-09-17T06:40:04;13.40;99.90
26136;DHT22;13889;50.806;4.608;2022-09-17T06:42:30;13.50;99.90
26136;DHT22;13889;50.806;4.608;2022-09-17T06:44:56;13.50;99.90
26136;DHT22;13889;50.806;4.608;2022-09-17T06:47:25;13.60;99.90
26136;DHT22;13889;50.806;4.608;2022-09-17T06:49:51;13.50;99.90
26136;DHT22;13889;50.806;4.608;2022-09-17T06:52:17;13.70;99.90
26136;DHT22;13889;50.806;4.608;2022-09-17T06:54:42;13.70;99.90
26136;DHT22;13889;50.806;4.608;2022-09-17T06:57:08;13.70;99.90
26136;DHT22;13889;50.806;4.608;2022-09-17T06:59:34;14.00;99.90
26136;DHT22;13889;50.806;4.608;2022-09-17T07:01:59;14.00;99.90
26136;DHT22;13889;50.806;4.608;2022-09-17T07:04:25;14.00;99.90
26136;DHT22;13889;50.806;4.608;2022-09-17T07:06:51;14.10;99.90
26136;DHT22;13889;50.806;4.608;2022-09-17T07:09:16;14.10;99.90
26136;DHT22;13889;50.806;4.608;2022-09-17T07:11:42;14.10;99.90
26136;DHT22;13889;50.806;4.608;2022-09-17T07:14:07;14.10;99.90
26136;DHT22;13889;50.806;4.608;2022-09-17T07:16:33;14.10;99.90
26136;DHT22;13889;50.806;4.608;2022-09-17T07:19:04;14.20;99.90
26136;DHT22;13889;50.806;4.608;2022-09-17T07:21:30;14.20;99.90
26136;DHT22;13889;50.806;4.608;2022-09-17T07:23:56;14.40;99.90
26136;DHT22;13889;50.806;4.608;2022-09-17T07:26:21;14.50;99.90
26136;DHT22;13889;50.806;4.608;2022-09-17T07:28:47;14.70;99.90
26136;DHT22;13889;50.806;4.608;2022-09-17T07:31:13;14.80;99.90
26136;DHT22;13889;50.806;4.608;2022-09-17T07:33:39;15.00;99.90
26136;DHT22;13889;50.806;4.608;2022-09-17T07:36:15;15.00;99.90
26136;DHT22;13889;50.806;4.608;2022-09-17T07:38:42;15.20;99.90
26136;DHT22;13889;50.806;4.608;2022-09-17T07:41:13;15.00;99.90
26136;DHT22;13889;50.806;4.608;2022-09-17T07:43:39;14.90;99.90
26136;DHT22;13889;50.806;4.608;2022-09-17T07:46:06;14.90;99.90
26136;DHT22;13889;50.806;4.608;2022-09-17T07:49:00;15.00;99.90
26136;DHT22;13889;50.806;4.608;2022-09-17T07:51:27;15.20;99.90
26136;DHT22;13889;50.806;4.608;2022-09-17T07:53:54;15.10;99.90
26136;DHT22;13889;50.806;4.608;2022-09-17T07:56:21;15.20;99.90
26136;DHT22;13889;50.806;4.608;2022-09-17T07:58:46;15.20;99.90
26136;DHT22;13889;50.806;4.608;2022-09-17T08:01:13;15.20;99.90
26136;DHT22;13889;50.806;4.608;2022-09-17T08:03:46;15.00;99.90
26136;DHT22;13889;50.806;4.608;2022-09-17T08:06:15;15.10;99.90
26136;DHT22;13889;50.806;4.608;2022-09-17T08:08:41;15.10;99.90
26136;DHT22;13889;50.806;4.608;2022-09-17T08:11:12;15.20;99.90
26136;DHT22;13889;50.806;4.608;2022-09-17T08:13:38;15.50;99.90
26136;DHT22;13889;50.806;4.608;2022-09-17T08:16:07;15.60;99.90
26136;DHT22;13889;50.806;4.608;2022-09-17T08:18:33;15.70;99.90
26136;DHT22;13889;50.806;4.608;2022-09-17T08:21:01;15.60;99.90
26136;DHT22;13889;50.806;4.608;2022-09-17T08:23:28;15.60;99.90
26136;DHT22;13889;50.806;4.608;2022-09-17T08:25:55;15.60;99.90
26136;DHT22;13889;50.806;4.608;2022-09-17T08:28:22;15.50;99.90
26136;DHT22;13889;50.806;4.608;2022-09-17T08:30:50;15.50;99.90
26136;DHT22;13889;50.806;4.608;2022-09-17T08:33:16;15.50;99.90
26136;DHT22;13889;50.806;4.608;2022-09-17T08:35:49;15.50;99.90
26136;DHT22;13889;50.806;4.608;2022-09-17T08:38:14;15.60;99.90
26136;DHT22;13889;50.806;4.608;2022-09-17T08:40:58;15.70;99.90
26136;DHT22;13889;50.806;4.608;2022-09-17T08:43:26;15.90;99.90
26136;DHT22;13889;50.806;4.608;2022-09-17T08:45:53;16.00;99.90
26136;DHT22;13889;50.806;4.608;2022-09-17T08:48:20;16.20;99.90
26136;DHT22;13889;50.806;4.608;2022-09-17T08:50:46;16.20;99.90
26136;DHT22;13889;50.806;4.608;2022-09-17T08:56:15;16.20;99.90
26136;DHT22;13889;50.806;4.608;2022-09-17T09:06:40;16.00;99.90
26136;DHT22;13889;50.806;4.608;2022-09-17T09:09:15;16.00;99.90
26136;DHT22;13889;50.806;4.608;2022-09-17T09:11:42;16.20;99.90
26136;DHT22;13889;50.806;4.608;2022-09-17T09:14:20;16.40;99.90
26136;DHT22;13889;50.806;4.608;2022-09-17T09:16:48;16.70;99.90
26136;DHT22;13889;50.806;4.608;2022-09-17T09:19:25;17.00;99.90
26136;DHT22;13889;50.806;4.608;2022-09-17T09:24:47;16.70;99.90
26136;DHT22;13889;50.806;4.608;2022-09-17T09:27:18;16.50;99.90
26136;DHT22;13889;50.806;4.608;2022-09-17T09:35:26;16.20;99.90
26136;DHT22;13889;50.806;4.608;2022-09-17T09:38:17;16.20;99.90
26136;DHT22;13889;50.806;4.608;2022-09-17T09:40:57;16.20;99.90
26136;DHT22;13889;50.806;4.608;2022-09-17T09:46:36;16.10;99.90
26136;DHT22;13889;50.806;4.608;2022-09-17T09:49:34;16.10;99.90
26136;DHT22;13889;50.806;4.608;2022-09-17T09:57:48;16.50;99.90
26136;DHT22;13889;50.806;4.608;2022-09-17T10:03:00;17.10;99.90
26136;DHT22;13889;50.806;4.608;2022-09-17T10:05:27;17.30;99.90
26136;DHT22;13889;50.806;4.608;2022-09-17T10:07:53;16.90;99.90
26136;DHT22;13889;50.806;4.608;2022-09-17T10:10:19;17.10;99.90
26136;DHT22;13889;50.806;4.608;2022-09-17T10:12:44;17.00;99.90
26136;DHT22;13889;50.806;4.608;2022-09-17T10:15:30;17.30;99.90
26136;DHT22;13889;50.806;4.608;2022-09-17T10:18:15;17.60;99.90
26136;DHT22;13889;50.806;4.608;2022-09-17T10:23:20;18.10;99.90
26136;DHT22;13889;50.806;4.608;2022-09-17T10:25:46;18.00;99.90
26136;DHT22;13889;50.806;4.608;2022-09-17T10:28:37;18.10;99.90
26136;DHT22;13889;50.806;4.608;2022-09-17T10:31:07;18.10;99.90
26136;DHT22;13889;50.806;4.608;2022-09-17T10:36:46;18.40;99.90
26136;DHT22;13889;50.806;4.608;2022-09-17T10:41:57;18.10;99.90
26136;DHT22;13889;50.806;4.608;2022-09-17T10:44:26;18.00;99.90
26136;DHT22;13889;50.806;4.608;2022-09-17T10:46:52;17.70;99.90
26136;DHT22;13889;50.806;4.608;2022-09-17T10:49:40;17.30;99.90
26136;DHT22;13889;50.806;4.608;2022-09-17T10:52:28;17.20;99.90
26136;DHT22;13889;50.806;4.608;2022-09-17T11:11:25;16.90;99.90
26136;DHT22;13889;50.806;4.608;2022-09-17T11:14:09;17.10;99.90
26136;DHT22;13889;50.806;4.608;2022-09-17T11:19:43;17.60;99.90
26136;DHT22;13889;50.806;4.608;2022-09-17T11:33:29;18.00;99.90
26136;DHT22;13889;50.806;4.608;2022-09-17T11:36:20;17.70;99.90
26136;DHT22;13889;50.806;4.608;2022-09-17T11:38:49;17.30;99.90
26136;DHT22;13889;50.806;4.608;2022-09-17T11:41:19;17.10;99.90
26136;DHT22;13889;50.806;4.608;2022-09-17T11:44:09;16.70;99.90
26136;DHT22;13889;50.806;4.608;2022-09-17T11:49:53;16.20;99.90
26136;DHT22;13889;50.806;4.608;2022-09-17T11:52:23;16.40;99.90
26136;DHT22;13889;50.806;4.608;2022-09-17T11:55:19;16.20;99.90
26136;DHT22;13889;50.806;4.608;2022-09-17T11:57:46;16.30;99.90
26136;DHT22;13889;50.806;4.608;2022-09-17T12:00:15;16.50;99.90
26136;DHT22;13889;50.806;4.608;2022-09-17T12:05:34;17.00;99.90
26136;DHT22;13889;50.806;4.608;2022-09-17T12:13:01;17.00;99.90
26136;DHT22;13889;50.806;4.608;2022-09-17T12:15:30;17.30;99.90
26136;DHT22;13889;50.806;4.608;2022-09-17T12:21:01;17.30;99.90
26136;DHT22;13889;50.806;4.608;2022-09-17T12:23:49;17.30;99.90
26136;DHT22;13889;50.806;4.608;2022-09-17T12:31:26;17.60;99.90
26136;DHT22;13889;50.806;4.608;2022-09-17T12:34:49;17.40;99.90
26136;DHT22;13889;50.806;4.608;2022-09-17T12:37:00;17.30;99.90
26136;DHT22;13889;50.806;4.608;2022-09-17T12:40:13;17.30;99.90
26136;DHT22;13889;50.806;4.608;2022-09-17T12:45:45;17.20;99.90
26136;DHT22;13889;50.806;4.608;2022-09-17T12:53:32;17.30;99.90
26136;DHT22;13889;50.806;4.608;2022-09-17T12:56:26;17.40;99.90
26136;DHT22;13889;50.806;4.608;2022-09-17T12:59:13;17.60;99.90
26136;DHT22;13889;50.806;4.608;2022-09-17T13:16:06;17.80;99.90
26136;DHT22;13889;50.806;4.608;2022-09-17T13:21:27;17.50;99.90
26136;DHT22;13889;50.806;4.608;2022-09-17T13:23:54;17.20;99.90
26136;DHT22;13889;50.806;4.608;2022-09-17T13:26:33;17.30;99.90
26136;DHT22;13889;50.806;4.608;2022-09-17T13:28:59;17.40;99.90
26136;DHT22;13889;50.806;4.608;2022-09-17T13:34:01;17.20;99.90
26136;DHT22;13889;50.806;4.608;2022-09-17T13:36:48;17.40;99.90
26136;DHT22;13889;50.806;4.608;2022-09-17T13:42:11;17.30;99.90
26136;DHT22;13889;50.806;4.608;2022-09-17T13:44:43;17.50;99.90
26136;DHT22;13889;50.806;4.608;2022-09-17T13:47:17;17.50;99.90
26136;DHT22;13889;50.806;4.608;2022-09-17T13:49:50;17.50;99.90
26136;DHT22;13889;50.806;4.608;2022-09-17T13:52:41;17.60;99.90
26136;DHT22;13889;50.806;4.608;2022-09-17T14:08:49;18.10;99.90
26136;DHT22;13889;50.806;4.608;2022-09-17T14:11:36;18.20;99.90
26136;DHT22;13889;50.806;4.608;2022-09-17T14:17:53;18.40;99.90
26136;DHT22;13889;50.806;4.608;2022-09-17T14:20:19;18.50;99.90
26136;DHT22;13889;50.806;4.608;2022-09-17T14:22:57;18.30;99.90
26136;DHT22;13889;50.806;4.608;2022-09-17T14:25:32;18.30;99.90
26136;DHT22;13889;50.806;4.608;2022-09-17T14:28:12;17.90;99.90
26136;DHT22;13889;50.806;4.608;2022-09-17T14:30:41;17.40;99.90
26136;DHT22;13889;50.806;4.608;2022-09-17T14:33:16;17.50;99.90
26136;DHT22;13889;50.806;4.608;2022-09-17T14:35:48;17.40;99.90
26136;DHT22;13889;50.806;4.608;2022-09-17T14:43:53;17.70;99.90
26136;DHT22;13889;50.806;4.608;2022-09-17T14:46:23;17.80;99.90
26136;DHT22;13889;50.806;4.608;2022-09-17T14:48:50;17.40;99.90
26136;DHT22;13889;50.806;4.608;2022-09-17T14:53:42;17.10;99.90
26136;DHT22;13889;50.806;4.608;2022-09-17T14:56:14;16.90;99.90
26136;DHT22;13889;50.806;4.608;2022-09-17T14:58:46;16.80;99.90
26136;DHT22;13889;50.806;4.608;2022-09-17T15:06:44;16.30;99.90
26136;DHT22;13889;50.806;4.608;2022-09-17T15:09:28;16.30;99.90
26136;DHT22;13889;50.806;4.608;2022-09-17T15:11:55;16.20;99.90
26136;DHT22;13889;50.806;4.608;2022-09-17T15:14:27;16.30;99.90
26136;DHT22;13889;50.806;4.608;2022-09-17T15:16:55;16.40;99.90
26136;DHT22;13889;50.806;4.608;2022-09-17T15:19:45;16.40;99.90
26136;DHT22;13889;50.806;4.608;2022-09-17T15:22:37;16.30;99.90
26136;DHT22;13889;50.806;4.608;2022-09-17T15:25:06;16.60;99.90
26136;DHT22;13889;50.806;4.608;2022-09-17T15:30:08;16.70;99.90
26136;DHT22;13889;50.806;4.608;2022-09-17T15:32:36;16.70;99.90
26136;DHT22;13889;50.806;4.608;2022-09-17T15:35:27;16.70;99.90
26136;DHT22;13889;50.806;4.608;2022-09-17T15:37:59;16.70;99.90
26136;DHT22;13889;50.806;4.608;2022-09-17T15:45:49;16.70;99.90
26136;DHT22;13889;50.806;4.608;2022-09-17T15:50:57;16.30;99.90
26136;DHT22;13889;50.806;4.608;2022-09-17T15:53:27;16.20;99.90
26136;DHT22;13889;50.806;4.608;2022-09-17T15:59:15;16.00;99.90
26136;DHT22;13889;50.806;4.608;2022-09-17T16:06:52;15.60;99.90
26136;DHT22;13889;50.806;4.608;2022-09-17T16:09:48;15.30;99.90
26136;DHT22;13889;50.806;4.608;2022-09-17T16:12:22;15.20;99.90
26136;DHT22;13889;50.806;4.608;2022-09-17T16:14:53;15.10;99.90
26136;DHT22;13889;50.806;4.608;2022-09-17T16:19:56;15.00;99.90
26136;DHT22;13889;50.806;4.608;2022-09-17T16:22:23;14.90;99.90
26136;DHT22;13889;50.806;4.608;2022-09-17T16:24:48;15.00;99.90
26136;DHT22;13889;50.806;4.608;2022-09-17T16:27:18;15.00;99.90
26136;DHT22;13889;50.806;4.608;2022-09-17T16:29:45;15.10;99.90
26136;DHT22;13889;50.806;4.608;2022-09-17T16:32:11;15.30;99.90
26136;DHT22;13889;50.806;4.608;2022-09-17T16:34:37;15.10;99.90
26136;DHT22;13889;50.806;4.608;2022-09-17T16:37:02;14.90;99.90
26136;DHT22;13889;50.806;4.608;2022-09-17T16:39:31;15.00;99.90
26136;DHT22;13889;50.806;4.608;2022-09-17T16:41:57;15.10;99.90
26136;DHT22;13889;50.806;4.608;2022-09-17T16:47:08;14.80;99.90
26136;DHT22;13889;50.806;4.608;2022-09-17T16:49:33;14.80;99.90
26136;DHT22;13889;50.806;4.608;2022-09-17T16:51:59;14.70;99.90
26136;DHT22;13889;50.806;4.608;2022-09-17T16:54:24;14.60;99.90
26136;DHT22;13889;50.806;4.608;2022-09-17T16:56:50;14.60;99.90
26136;DHT22;13889;50.806;4.608;2022-09-17T16:59:16;14.60;99.90
26136;DHT22;13889;50.806;4.608;2022-09-17T17:01:41;14.50;99.90
26136;DHT22;13889;50.806;4.608;2022-09-17T17:04:08;14.40;99.90
26136;DHT22;13889;50.806;4.608;2022-09-17T17:06:33;14.50;99.90
26136;DHT22;13889;50.806;4.608;2022-09-17T17:08:59;14.40;99.90
26136;DHT22;13889;50.806;4.608;2022-09-17T17:11:26;14.50;99.90
26136;DHT22;13889;50.806;4.608;2022-09-17T17:13:53;14.70;99.90
26136;DHT22;13889;50.806;4.608;2022-09-17T17:16:20;14.80;99.90
26136;DHT22;13889;50.806;4.608;2022-09-17T17:18:46;14.80;99.90
26136;DHT22;13889;50.806;4.608;2022-09-17T17:21:13;14.80;99.90
26136;DHT22;13889;50.806;4.608;2022-09-17T17:23:38;14.90;99.90
26136;DHT22;13889;50.806;4.608;2022-09-17T17:26:04;15.00;99.90
26136;DHT22;13889;50.806;4.608;2022-09-17T17:28:31;14.90;99.90
26136;DHT22;13889;50.806;4.608;2022-09-17T17:30:57;14.90;99.90
26136;DHT22;13889;50.806;4.608;2022-09-17T17:33:23;14.90;99.90
26136;DHT22;13889;50.806;4.608;2022-09-17T17:35:48;14.80;99.90
26136;DHT22;13889;50.806;4.608;2022-09-17T17:38:16;14.90;99.90
26136;DHT22;13889;50.806;4.608;2022-09-17T17:40:42;14.80;99.90
26136;DHT22;13889;50.806;4.608;2022-09-17T17:43:10;14.90;99.90
26136;DHT22;13889;50.806;4.608;2022-09-17T17:45:37;14.90;99.90
26136;DHT22;13889;50.806;4.608;2022-09-17T17:48:02;14.90;99.90
26136;DHT22;13889;50.806;4.608;2022-09-17T17:50:28;14.90;99.90
26136;DHT22;13889;50.806;4.608;2022-09-17T17:52:54;14.90;99.90
26136;DHT22;13889;50.806;4.608;2022-09-17T17:58:15;14.90;99.90
26136;DHT22;13889;50.806;4.608;2022-09-17T18:00:41;14.80;99.90
26136;DHT22;13889;50.806;4.608;2022-09-17T18:03:08;14.80;99.90
26136;DHT22;13889;50.806;4.608;2022-09-17T18:05:34;14.80;99.90
26136;DHT22;13889;50.806;4.608;2022-09-17T18:07:59;14.80;99.90
26136;DHT22;13889;50.806;4.608;2022-09-17T18:10:25;14.90;99.90
26136;DHT22;13889;50.806;4.608;2022-09-17T18:12:52;14.90;99.90
26136;DHT22;13889;50.806;4.608;2022-09-17T18:15:18;14.90;99.90
26136;DHT22;13889;50.806;4.608;2022-09-17T18:17:43;14.80;99.90
26136;DHT22;13889;50.806;4.608;2022-09-17T18:20:12;14.90;99.90
26136;DHT22;13889;50.806;4.608;2022-09-17T18:22:39;14.70;99.90
26136;DHT22;13889;50.806;4.608;2022-09-17T18:25:05;14.80;99.90
26136;DHT22;13889;50.806;4.608;2022-09-17T18:27:31;14.90;99.90
26136;DHT22;13889;50.806;4.608;2022-09-17T18:29:57;14.80;99.90
26136;DHT22;13889;50.806;4.608;2022-09-17T18:32:22;14.90;99.90
26136;DHT22;13889;50.806;4.608;2022-09-17T18:34:48;14.90;99.90
26136;DHT22;13889;50.806;4.608;2022-09-17T18:37:13;14.90;99.90
26136;DHT22;13889;50.806;4.608;2022-09-17T18:39:39;14.90;99.90
26136;DHT22;13889;50.806;4.608;2022-09-17T18:42:04;14.80;99.90
26136;DHT22;13889;50.806;4.608;2022-09-17T18:44:30;14.80;99.90
26136;DHT22;13889;50.806;4.608;2022-09-17T18:46:55;14.90;99.90
26136;DHT22;13889;50.806;4.608;2022-09-17T18:49:21;14.80;99.90
26136;DHT22;13889;50.806;4.608;2022-09-17T18:51:47;14.80;99.90
26136;DHT22;13889;50.806;4.608;2022-09-17T18:54:12;14.80;99.90
26136;DHT22;13889;50.806;4.608;2022-09-17T18:56:38;14.90;99.90
26136;DHT22;13889;50.806;4.608;2022-09-17T18:59:05;14.90;99.90
26136;DHT22;13889;50.806;4.608;2022-09-17T19:01:31;14.90;99.90
26136;DHT22;13889;50.806;4.608;2022-09-17T19:03:58;14.80;99.90
26136;DHT22;13889;50.806;4.608;2022-09-17T19:06:24;14.90;99.90
26136;DHT22;13889;50.806;4.608;2022-09-17T19:08:50;14.80;99.90
26136;DHT22;13889;50.806;4.608;2022-09-17T19:14:00;14.70;99.90
26136;DHT22;13889;50.806;4.608;2022-09-17T19:16:25;14.70;99.90
26136;DHT22;13889;50.806;4.608;2022-09-17T19:18:51;14.80;99.90
26136;DHT22;13889;50.806;4.608;2022-09-17T19:21:18;14.80;99.90
26136;DHT22;13889;50.806;4.608;2022-09-17T19:23:49;14.80;99.90
26136;DHT22;13889;50.806;4.608;2022-09-17T19:26:23;14.80;99.90
26136;DHT22;13889;50.806;4.608;2022-09-17T19:28:57;14.80;99.90
26136;DHT22;13889;50.806;4.608;2022-09-17T19:31:23;14.70;99.90
26136;DHT22;13889;50.806;4.608;2022-09-17T19:33:49;14.70;99.90